sensor_id;sensor_type;location;lat;lon;timestamp;pressure;altitude;pressure_sealevel;temperature;humidity
73558;BME280;61829;53.286;10.434;2022-08-14T00:01:09;101267.84;;;22.64;53.98
73558;BME280;61829;53.286;10.434;2022-08-14T00:03:34;101266.22;;;22.63;53.92
73558;BME280;61829;53.286;10.434;2022-08-14T00:09:16;101256.56;;;22.60;53.85
73558;BME280;61829;53.286;10.434;2022-08-14T00:11:42;101249.41;;;22.59;54.70
73558;BME280;61829;53.286;10.434;2022-08-14T00:14:08;101266.72;;;22.60;54.55
73558;BME280;61829;53.286;10.434;2022-08-14T00:16:34;101251.31;;;22.59;54.02
73558;BME280;61829;53.286;10.434;2022-08-14T00:19:00;101257.38;;;22.61;54.16
73558;BME280;61829;53.286;10.434;2022-08-14T00:21:26;101260.41;;;22.59;54.30
73558;BME280;61829;53.286;10.434;2022-08-14T00:23:52;101256.78;;;22.59;54.05
73558;BME280;61829;53.286;10.434;2022-08-14T00:26:18;101255.16;;;22.58;54.29
73558;BME280;61829;53.286;10.434;2022-08-14T00:28:52;101248.81;;;22.57;54.27
73558;BME280;61829;53.286;10.434;2022-08-14T00:31:19;101249.94;;;22.56;54.33
73558;BME280;61829;53.286;10.434;2022-08-14T00:33:46;101248.25;;;22.55;54.48
73558;BME280;61829;53.286;10.434;2022-08-14T00:36:12;101248.16;;;22.50;54.38
73558;BME280;61829;53.286;10.434;2022-08-14T00:38:38;101247.78;;;22.41;54.95
73558;BME280;61829;53.286;10.434;2022-08-14T00:41:04;101240.81;;;22.34;55.09
73558;BME280;61829;53.286;10.434;2022-08-14T00:43:33;101239.97;;;22.33;54.97
73558;BME280;61829;53.286;10.434;2022-08-14T00:46:04;101237.75;;;22.30;55.09
73558;BME280;61829;53.286;10.434;2022-08-14T00:48:31;101236.09;;;22.29;55.25
73558;BME280;61829;53.286;10.434;2022-08-14T00:50:57;101232.50;;;22.29;55.08
73558;BME280;61829;53.286;10.434;2022-08-14T00:53:24;101226.50;;;22.32;54.81
73558;BME280;61829;53.286;10.434;2022-08-14T00:55:51;101229.84;;;22.34;54.79
73558;BME280;61829;53.286;10.434;2022-08-14T00:58:20;101233.66;;;22.33;55.21
73558;BME280;61829;53.286;10.434;2022-08-14T01:04:45;101230.59;;;22.29;55.02
73558;BME280;61829;53.286;10.434;2022-08-14T01:07:12;101231.09;;;22.26;55.56
73558;BME280;61829;53.286;10.434;2022-08-14T01:09:45;101236.19;;;22.17;55.65
73558;BME280;61829;53.286;10.434;2022-08-14T01:12:11;101245.06;;;22.08;55.94
73558;BME280;61829;53.286;10.434;2022-08-14T01:14:37;101230.78;;;22.06;55.97
73558;BME280;61829;53.286;10.434;2022-08-14T01:17:03;101234.34;;;22.06;56.14
73558;BME280;61829;53.286;10.434;2022-08-14T01:19:29;101224.19;;;22.07;55.78
73558;BME280;61829;53.286;10.434;2022-08-14T01:22:13;101223.09;;;22.08;55.89
73558;BME280;61829;53.286;10.434;2022-08-14T01:24:40;101229.59;;;22.02;55.92
73558;BME280;61829;53.286;10.434;2022-08-14T01:27:06;101221.88;;;21.98;56.23
73558;BME280;61829;53.286;10.434;2022-08-14T01:29:38;101206.22;;;21.99;56.26
73558;BME280;61829;53.286;10.434;2022-08-14T01:32:05;101220.31;;;22.03;55.96
73558;BME280;61829;53.286;10.434;2022-08-14T01:34:30;101217.56;;;22.03;56.59
73558;BME280;61829;53.286;10.434;2022-08-14T01:36:58;101219.22;;;22.04;56.21
73558;BME280;61829;53.286;10.434;2022-08-14T01:39:25;101217.06;;;22.06;56.44
73558;BME280;61829;53.286;10.434;2022-08-14T01:41:50;101208.00;;;22.05;56.42
73558;BME280;61829;53.286;10.434;2022-08-14T01:44:27;101200.31;;;22.07;56.29
73558;BME280;61829;53.286;10.434;2022-08-14T01:46:58;101198.41;;;22.08;56.72
73558;BME280;61829;53.286;10.434;2022-08-14T01:49:25;101202.81;;;22.09;56.94
73558;BME280;61829;53.286;10.434;2022-08-14T01:51:51;101205.56;;;22.09;56.43
73558;BME280;61829;53.286;10.434;2022-08-14T01:54:23;101196.75;;;22.07;57.37
73558;BME280;61829;53.286;10.434;2022-08-14T01:56:55;101208.25;;;22.04;57.31
73558;BME280;61829;53.286;10.434;2022-08-14T02:01:52;101201.22;;;21.74;58.32
73558;BME280;61829;53.286;10.434;2022-08-14T02:04:19;101200.63;;;21.55;59.09
73558;BME280;61829;53.286;10.434;2022-08-14T02:06:49;101200.34;;;21.40;59.66
73558;BME280;61829;53.286;10.434;2022-08-14T02:09:16;101204.72;;;21.24;60.32
73558;BME280;61829;53.286;10.434;2022-08-14T02:11:43;101202.59;;;21.14;60.55
73558;BME280;61829;53.286;10.434;2022-08-14T02:14:10;101201.56;;;21.15;60.69
73558;BME280;61829;53.286;10.434;2022-08-14T02:16:40;101199.72;;;21.21;60.64
73558;BME280;61829;53.286;10.434;2022-08-14T02:19:17;101199.84;;;21.26;60.33
73558;BME280;61829;53.286;10.434;2022-08-14T02:21:45;101197.16;;;21.31;60.65
73558;BME280;61829;53.286;10.434;2022-08-14T02:24:12;101195.00;;;21.33;60.17
73558;BME280;61829;53.286;10.434;2022-08-14T02:26:40;101199.41;;;21.34;60.48
73558;BME280;61829;53.286;10.434;2022-08-14T02:29:10;101192.03;;;21.35;60.14
73558;BME280;61829;53.286;10.434;2022-08-14T02:31:42;101195.00;;;21.33;60.11
73558;BME280;61829;53.286;10.434;2022-08-14T02:34:18;101185.97;;;21.33;60.12
73558;BME280;61829;53.286;10.434;2022-08-14T02:36:46;101185.13;;;21.32;59.86
73558;BME280;61829;53.286;10.434;2022-08-14T02:39:13;101189.19;;;21.29;60.09
73558;BME280;61829;53.286;10.434;2022-08-14T02:41:40;101177.63;;;21.27;60.02
73558;BME280;61829;53.286;10.434;2022-08-14T02:44:07;101179.28;;;21.28;60.24
73558;BME280;61829;53.286;10.434;2022-08-14T02:46:37;101171.06;;;21.28;59.82
73558;BME280;61829;53.286;10.434;2022-08-14T02:49:04;101174.31;;;21.25;60.13
73558;BME280;61829;53.286;10.434;2022-08-14T02:51:34;101165.53;;;21.23;60.49
73558;BME280;61829;53.286;10.434;2022-08-14T02:54:00;101166.84;;;21.21;60.30
73558;BME280;61829;53.286;10.434;2022-08-14T02:56:27;101163.09;;;21.10;60.89
73558;BME280;61829;53.286;10.434;2022-08-14T02:58:55;101167.38;;;21.06;60.87
73558;BME280;61829;53.286;10.434;2022-08-14T03:01:22;101166.63;;;20.94;61.77
73558;BME280;61829;53.286;10.434;2022-08-14T03:03:50;101167.06;;;20.74;62.34
73558;BME280;61829;53.286;10.434;2022-08-14T03:06:17;101162.34;;;20.57;62.98
73558;BME280;61829;53.286;10.434;2022-08-14T03:08:48;101162.34;;;20.57;62.60
73558;BME280;61829;53.286;10.434;2022-08-14T03:11:14;101162.72;;;20.61;61.70
73558;BME280;61829;53.286;10.434;2022-08-14T03:13:45;101170.66;;;20.62;62.34
73558;BME280;61829;53.286;10.434;2022-08-14T03:16:18;101167.81;;;20.57;62.47
73558;BME280;61829;53.286;10.434;2022-08-14T03:18:46;101165.09;;;20.57;62.79
73558;BME280;61829;53.286;10.434;2022-08-14T03:21:16;101160.56;;;20.51;62.57
73558;BME280;61829;53.286;10.434;2022-08-14T03:23:44;101161.53;;;20.45;63.21
73558;BME280;61829;53.286;10.434;2022-08-14T03:26:15;101165.00;;;20.40;63.24
73558;BME280;61829;53.286;10.434;2022-08-14T03:28:44;101162.03;;;20.42;62.86
73558;BME280;61829;53.286;10.434;2022-08-14T03:31:10;101162.63;;;20.44;63.88
73558;BME280;61829;53.286;10.434;2022-08-14T03:33:37;101160.44;;;20.46;64.44
73558;BME280;61829;53.286;10.434;2022-08-14T03:36:11;101156.66;;;20.47;63.40
73558;BME280;61829;53.286;10.434;2022-08-14T03:38:38;101165.69;;;20.48;62.93
73558;BME280;61829;53.286;10.434;2022-08-14T03:41:11;101154.16;;;20.46;64.72
73558;BME280;61829;53.286;10.434;2022-08-14T03:43:40;101159.78;;;20.39;64.36
73558;BME280;61829;53.286;10.434;2022-08-14T03:46:06;101158.34;;;20.36;64.64
73558;BME280;61829;53.286;10.434;2022-08-14T03:48:32;101151.78;;;20.37;64.90
73558;BME280;61829;53.286;10.434;2022-08-14T03:50:57;101147.06;;;20.33;65.58
73558;BME280;61829;53.286;10.434;2022-08-14T03:53:24;101144.69;;;20.25;64.75
73558;BME280;61829;53.286;10.434;2022-08-14T03:55:50;101139.72;;;20.22;64.92
73558;BME280;61829;53.286;10.434;2022-08-14T03:58:15;101142.44;;;20.22;65.23
73558;BME280;61829;53.286;10.434;2022-08-14T04:00:42;101134.13;;;20.16;65.85
73558;BME280;61829;53.286;10.434;2022-08-14T04:03:11;101142.00;;;20.13;65.46
73558;BME280;61829;53.286;10.434;2022-08-14T04:05:37;101140.31;;;20.12;65.64
73558;BME280;61829;53.286;10.434;2022-08-14T04:08:04;101137.81;;;20.10;65.31
73558;BME280;61829;53.286;10.434;2022-08-14T04:10:33;101137.56;;;20.12;66.33
73558;BME280;61829;53.286;10.434;2022-08-14T04:13:00;101129.13;;;20.13;65.52
73558;BME280;61829;53.286;10.434;2022-08-14T04:15:26;101126.97;;;20.15;66.24
73558;BME280;61829;53.286;10.434;2022-08-14T04:17:53;101134.00;;;20.11;66.23
73558;BME280;61829;53.286;10.434;2022-08-14T04:20:20;101128.06;;;20.03;66.37
73558;BME280;61829;53.286;10.434;2022-08-14T04:22:46;101117.84;;;19.98;66.30
73558;BME280;61829;53.286;10.434;2022-08-14T04:25:15;101115.97;;;19.99;66.74
73558;BME280;61829;53.286;10.434;2022-08-14T04:27:40;101114.88;;;20.00;66.96
73558;BME280;61829;53.286;10.434;2022-08-14T04:30:07;101113.69;;;19.95;66.51
73558;BME280;61829;53.286;10.434;2022-08-14T04:32:33;101117.50;;;19.94;66.35
73558;BME280;61829;53.286;10.434;2022-08-14T04:34:59;101108.81;;;19.98;66.16
73558;BME280;61829;53.286;10.434;2022-08-14T04:37:26;101110.00;;;20.02;66.69
73558;BME280;61829;53.286;10.434;2022-08-14T04:40:12;101116.66;;;20.06;66.34
73558;BME280;61829;53.286;10.434;2022-08-14T04:42:56;101118.75;;;20.15;65.56
73558;BME280;61829;53.286;10.434;2022-08-14T04:45:41;101116.50;;;20.24;65.81
73558;BME280;61829;53.286;10.434;2022-08-14T04:48:12;101119.47;;;20.23;65.62
73558;BME280;61829;53.286;10.434;2022-08-14T04:50:51;101124.13;;;20.22;65.72
73558;BME280;61829;53.286;10.434;2022-08-14T04:53:22;101121.22;;;20.29;65.78
73558;BME280;61829;53.286;10.434;2022-08-14T04:55:49;101115.97;;;20.39;65.16
73558;BME280;61829;53.286;10.434;2022-08-14T04:58:17;101114.28;;;20.50;64.78
73558;BME280;61829;53.286;10.434;2022-08-14T05:00:44;101111.13;;;20.70;64.47
73558;BME280;61829;53.286;10.434;2022-08-14T05:03:13;101108.81;;;20.78;64.59
73558;BME280;61829;53.286;10.434;2022-08-14T05:05:39;101103.91;;;20.80;64.09
73558;BME280;61829;53.286;10.434;2022-08-14T05:08:10;101111.22;;;20.92;63.98
73558;BME280;61829;53.286;10.434;2022-08-14T05:10:42;101105.22;;;21.06;63.23
73558;BME280;61829;53.286;10.434;2022-08-14T05:13:09;101108.28;;;21.27;63.39
73558;BME280;61829;53.286;10.434;2022-08-14T05:15:37;101104.25;;;21.46;62.32
73558;BME280;61829;53.286;10.434;2022-08-14T05:18:07;101107.03;;;21.68;61.51
73558;BME280;61829;53.286;10.434;2022-08-14T05:20:48;101102.59;;;21.84;61.00
73558;BME280;61829;53.286;10.434;2022-08-14T05:23:17;101106.75;;;22.09;60.24
73558;BME280;61829;53.286;10.434;2022-08-14T05:25:44;101113.47;;;22.40;59.52
73558;BME280;61829;53.286;10.434;2022-08-14T05:28:19;101118.44;;;22.65;58.61
73558;BME280;61829;53.286;10.434;2022-08-14T05:30:48;101107.19;;;22.94;57.50
73558;BME280;61829;53.286;10.434;2022-08-14T05:33:15;101107.63;;;23.13;56.54
73558;BME280;61829;53.286;10.434;2022-08-14T05:35:47;101101.50;;;23.33;56.09
73558;BME280;61829;53.286;10.434;2022-08-14T05:38:15;101096.09;;;23.48;55.55
73558;BME280;61829;53.286;10.434;2022-08-14T05:40:47;101091.88;;;23.72;55.05
73558;BME280;61829;53.286;10.434;2022-08-14T05:43:14;101091.44;;;23.91;54.41
73558;BME280;61829;53.286;10.434;2022-08-14T05:45:40;101090.19;;;24.24;53.70
73558;BME280;61829;53.286;10.434;2022-08-14T05:48:11;101085.28;;;24.36;53.07
73558;BME280;61829;53.286;10.434;2022-08-14T05:50:38;101076.81;;;24.58;52.88
73558;BME280;61829;53.286;10.434;2022-08-14T05:53:04;101082.91;;;24.71;52.24
73558;BME280;61829;53.286;10.434;2022-08-14T05:55:29;101076.28;;;24.77;51.74
73558;BME280;61829;53.286;10.434;2022-08-14T05:57:57;101088.16;;;24.82;51.73
73558;BME280;61829;53.286;10.434;2022-08-14T06:00:26;101075.44;;;24.71;51.88
73558;BME280;61829;53.286;10.434;2022-08-14T06:02:52;101078.22;;;24.76;52.60
73558;BME280;61829;53.286;10.434;2022-08-14T06:05:18;101077.94;;;24.68;52.26
73558;BME280;61829;53.286;10.434;2022-08-14T06:07:44;101074.88;;;24.44;53.19
73558;BME280;61829;53.286;10.434;2022-08-14T06:10:10;101067.97;;;24.51;52.82
73558;BME280;61829;53.286;10.434;2022-08-14T06:12:37;101075.72;;;24.64;52.77
73558;BME280;61829;53.286;10.434;2022-08-14T06:15:04;101073.56;;;24.92;52.32
73558;BME280;61829;53.286;10.434;2022-08-14T06:17:30;101070.28;;;25.16;51.42
73558;BME280;61829;53.286;10.434;2022-08-14T06:19:56;101059.19;;;25.41;50.69
73558;BME280;61829;53.286;10.434;2022-08-14T06:22:22;101058.06;;;25.68;49.96
73558;BME280;61829;53.286;10.434;2022-08-14T06:24:48;101050.56;;;25.84;49.60
73558;BME280;61829;53.286;10.434;2022-08-14T06:27:14;101055.47;;;26.07;48.93
73558;BME280;61829;53.286;10.434;2022-08-14T06:29:39;101049.25;;;26.31;48.93
73558;BME280;61829;53.286;10.434;2022-08-14T06:32:05;101052.72;;;26.52;48.33
73558;BME280;61829;53.286;10.434;2022-08-14T06:34:32;101048.69;;;26.78;47.55
73558;BME280;61829;53.286;10.434;2022-08-14T06:36:57;101044.44;;;26.91;47.31
73558;BME280;61829;53.286;10.434;2022-08-14T06:39:24;101041.28;;;27.03;47.00
73558;BME280;61829;53.286;10.434;2022-08-14T06:41:50;101040.25;;;27.28;46.70
73558;BME280;61829;53.286;10.434;2022-08-14T06:44:16;101047.91;;;27.36;46.42
73558;BME280;61829;53.286;10.434;2022-08-14T06:46:42;101055.53;;;27.49;46.48
73558;BME280;61829;53.286;10.434;2022-08-14T06:49:08;101053.66;;;27.69;45.94
73558;BME280;61829;53.286;10.434;2022-08-14T06:51:34;101051.88;;;27.83;44.91
73558;BME280;61829;53.286;10.434;2022-08-14T06:54:00;101055.31;;;27.70;45.10
73558;BME280;61829;53.286;10.434;2022-08-14T06:56:26;101059.06;;;27.55;45.66
73558;BME280;61829;53.286;10.434;2022-08-14T06:58:52;101047.66;;;27.62;45.87
73558;BME280;61829;53.286;10.434;2022-08-14T07:01:18;101049.47;;;27.47;45.81
73558;BME280;61829;53.286;10.434;2022-08-14T07:04:19;101041.81;;;27.63;46.35
73558;BME280;61829;53.286;10.434;2022-08-14T07:07:04;101039.50;;;27.70;45.72
73558;BME280;61829;53.286;10.434;2022-08-14T07:09:30;101037.97;;;28.07;45.93
73558;BME280;61829;53.286;10.434;2022-08-14T07:12:02;101041.00;;;28.30;44.75
73558;BME280;61829;53.286;10.434;2022-08-14T07:14:28;101035.66;;;28.33;44.07
73558;BME280;61829;53.286;10.434;2022-08-14T07:16:54;101025.03;;;28.21;44.62
73558;BME280;61829;53.286;10.434;2022-08-14T07:19:20;101030.38;;;28.37;44.29
73558;BME280;61829;53.286;10.434;2022-08-14T07:21:48;101023.97;;;28.36;43.96
73558;BME280;61829;53.286;10.434;2022-08-14T07:24:14;101020.91;;;28.19;44.50
73558;BME280;61829;53.286;10.434;2022-08-14T07:26:40;101015.47;;;28.14;44.73
73558;BME280;61829;53.286;10.434;2022-08-14T07:29:06;101018.38;;;28.23;44.79
73558;BME280;61829;53.286;10.434;2022-08-14T07:31:31;101019.13;;;28.09;44.39
73558;BME280;61829;53.286;10.434;2022-08-14T07:33:57;101012.16;;;28.12;44.80
73558;BME280;61829;53.286;10.434;2022-08-14T07:40:05;101026.97;;;28.45;44.38
73558;BME280;61829;53.286;10.434;2022-08-14T07:42:31;101023.06;;;28.79;43.46
73558;BME280;61829;53.286;10.434;2022-08-14T07:44:58;101020.59;;;28.77;44.26
73558;BME280;61829;53.286;10.434;2022-08-14T07:47:24;101026.06;;;29.15;44.17
73558;BME280;61829;53.286;10.434;2022-08-14T07:50:01;101019.50;;;29.11;44.07
73558;BME280;61829;53.286;10.434;2022-08-14T07:52:28;101024.13;;;29.16;43.82
73558;BME280;61829;53.286;10.434;2022-08-14T07:54:55;101019.44;;;28.97;44.04
73558;BME280;61829;53.286;10.434;2022-08-14T07:57:21;101024.75;;;28.61;45.56
73558;BME280;61829;53.286;10.434;2022-08-14T07:59:47;101018.22;;;28.71;45.39
73558;BME280;61829;53.286;10.434;2022-08-14T08:02:15;101023.72;;;29.08;45.25
73558;BME280;61829;53.286;10.434;2022-08-14T08:04:45;101026.00;;;29.01;43.72
73558;BME280;61829;53.286;10.434;2022-08-14T08:07:12;101016.28;;;29.04;44.48
73558;BME280;61829;53.286;10.434;2022-08-14T08:09:42;101013.69;;;28.94;44.79
73558;BME280;61829;53.286;10.434;2022-08-14T08:12:10;101011.69;;;28.80;44.64
73558;BME280;61829;53.286;10.434;2022-08-14T08:14:40;101009.25;;;28.93;45.03
73558;BME280;61829;53.286;10.434;2022-08-14T08:17:08;101015.84;;;28.97;44.97
73558;BME280;61829;53.286;10.434;2022-08-14T08:19:40;101018.09;;;28.95;44.60
73558;BME280;61829;53.286;10.434;2022-08-14T08:22:20;101016.06;;;29.33;45.09
73558;BME280;61829;53.286;10.434;2022-08-14T08:24:53;101016.28;;;29.50;44.60
73558;BME280;61829;53.286;10.434;2022-08-14T08:27:21;101006.72;;;29.70;43.82
73558;BME280;61829;53.286;10.434;2022-08-14T08:29:49;101009.59;;;29.79;43.69
73558;BME280;61829;53.286;10.434;2022-08-14T08:32:15;101016.66;;;29.44;43.25
73558;BME280;61829;53.286;10.434;2022-08-14T08:34:46;101008.00;;;29.18;44.06
73558;BME280;61829;53.286;10.434;2022-08-14T08:37:13;101009.91;;;29.03;44.18
73558;BME280;61829;53.286;10.434;2022-08-14T08:39:44;101013.97;;;28.92;44.50
73558;BME280;61829;53.286;10.434;2022-08-14T08:42:10;101012.34;;;28.91;44.78
73558;BME280;61829;53.286;10.434;2022-08-14T08:44:36;101013.84;;;28.83;45.09
73558;BME280;61829;53.286;10.434;2022-08-14T08:47:02;101010.47;;;28.86;45.13
73558;BME280;61829;53.286;10.434;2022-08-14T08:49:41;101003.81;;;29.01;44.90
73558;BME280;61829;53.286;10.434;2022-08-14T08:52:07;101013.47;;;29.23;44.05
73558;BME280;61829;53.286;10.434;2022-08-14T08:54:33;101001.91;;;29.16;44.23
73558;BME280;61829;53.286;10.434;2022-08-14T08:56:59;101005.03;;;28.95;44.50
73558;BME280;61829;53.286;10.434;2022-08-14T08:59:29;101004.88;;;28.73;44.59
73558;BME280;61829;53.286;10.434;2022-08-14T09:02:07;101002.41;;;28.71;45.60
73558;BME280;61829;53.286;10.434;2022-08-14T09:04:42;101004.94;;;28.68;45.55
73558;BME280;61829;53.286;10.434;2022-08-14T09:07:09;101004.88;;;28.73;44.93
73558;BME280;61829;53.286;10.434;2022-08-14T09:09:35;101004.75;;;28.97;44.97
73558;BME280;61829;53.286;10.434;2022-08-14T09:12:18;101007.69;;;29.19;44.60
73558;BME280;61829;53.286;10.434;2022-08-14T09:14:44;101000.72;;;29.22;44.16
73558;BME280;61829;53.286;10.434;2022-08-14T09:17:11;100995.06;;;29.54;43.73
73558;BME280;61829;53.286;10.434;2022-08-14T09:19:38;100986.56;;;29.79;42.99
73558;BME280;61829;53.286;10.434;2022-08-14T09:22:05;100982.06;;;30.05;43.37
73558;BME280;61829;53.286;10.434;2022-08-14T09:24:31;100991.25;;;30.42;42.01
73558;BME280;61829;53.286;10.434;2022-08-14T09:26:58;100984.53;;;30.43;42.04
73558;BME280;61829;53.286;10.434;2022-08-14T09:29:24;100983.78;;;30.29;42.46
73558;BME280;61829;53.286;10.434;2022-08-14T09:31:55;100992.03;;;30.06;42.90
73558;BME280;61829;53.286;10.434;2022-08-14T09:45:20;100979.31;;;29.22;45.19
73558;BME280;61829;53.286;10.434;2022-08-14T09:47:53;100975.00;;;29.44;44.25
73558;BME280;61829;53.286;10.434;2022-08-14T09:50:30;100960.81;;;29.31;43.94
73558;BME280;61829;53.286;10.434;2022-08-14T09:53:04;100970.69;;;29.24;44.06
73558;BME280;61829;53.286;10.434;2022-08-14T09:55:32;100966.88;;;29.20;44.63
73558;BME280;61829;53.286;10.434;2022-08-14T10:03:11;100954.63;;;29.90;43.12
73558;BME280;61829;53.286;10.434;2022-08-14T10:05:38;100956.47;;;29.94;42.02
73558;BME280;61829;53.286;10.434;2022-08-14T10:08:16;100944.16;;;29.87;42.25
73558;BME280;61829;53.286;10.434;2022-08-14T10:10:43;100940.25;;;29.74;42.20
73558;BME280;61829;53.286;10.434;2022-08-14T10:13:23;100931.81;;;29.79;42.52
73558;BME280;61829;53.286;10.434;2022-08-14T10:15:50;100938.19;;;29.52;42.50
73558;BME280;61829;53.286;10.434;2022-08-14T10:18:26;100935.63;;;29.28;43.61
73558;BME280;61829;53.286;10.434;2022-08-14T10:20:55;100927.50;;;29.18;44.19
73558;BME280;61829;53.286;10.434;2022-08-14T10:23:24;100930.28;;;29.18;43.77
73558;BME280;61829;53.286;10.434;2022-08-14T10:25:57;100912.81;;;29.17;43.86
73558;BME280;61829;53.286;10.434;2022-08-14T10:28:23;100915.16;;;29.24;43.40
73558;BME280;61829;53.286;10.434;2022-08-14T10:30:50;100912.00;;;29.30;45.22
73558;BME280;61829;53.286;10.434;2022-08-14T10:33:30;100911.78;;;29.13;45.10
73558;BME280;61829;53.286;10.434;2022-08-14T10:35:58;100908.06;;;29.18;45.70
73558;BME280;61829;53.286;10.434;2022-08-14T10:38:29;100906.34;;;29.22;45.14
73558;BME280;61829;53.286;10.434;2022-08-14T10:41:16;100906.69;;;29.01;45.78
73558;BME280;61829;53.286;10.434;2022-08-14T10:43:44;100898.50;;;28.96;46.95
73558;BME280;61829;53.286;10.434;2022-08-14T10:46:17;100899.75;;;29.04;46.40
73558;BME280;61829;53.286;10.434;2022-08-14T10:48:56;100900.38;;;29.15;45.65
73558;BME280;61829;53.286;10.434;2022-08-14T10:51:26;100894.19;;;29.18;46.75
73558;BME280;61829;53.286;10.434;2022-08-14T10:53:54;100887.63;;;29.27;46.40
73558;BME280;61829;53.286;10.434;2022-08-14T10:56:28;100882.25;;;29.45;46.69
73558;BME280;61829;53.286;10.434;2022-08-14T11:01:31;100881.75;;;29.43;45.05
73558;BME280;61829;53.286;10.434;2022-08-14T11:03:57;100876.59;;;29.50;45.33
73558;BME280;61829;53.286;10.434;2022-08-14T11:06:23;100872.06;;;29.68;45.01
73558;BME280;61829;53.286;10.434;2022-08-14T11:08:49;100868.34;;;29.72;41.44
73558;BME280;61829;53.286;10.434;2022-08-14T11:11:17;100860.97;;;29.90;40.60
73558;BME280;61829;53.286;10.434;2022-08-14T11:13:44;100870.16;;;30.13;40.26
73558;BME280;61829;53.286;10.434;2022-08-14T11:16:13;100860.94;;;30.49;38.90
73558;BME280;61829;53.286;10.434;2022-08-14T11:18:46;100868.00;;;30.86;38.27
73558;BME280;61829;53.286;10.434;2022-08-14T11:21:16;100860.59;;;31.22;37.89
73558;BME280;61829;53.286;10.434;2022-08-14T11:23:46;100859.84;;;31.56;36.70
73558;BME280;61829;53.286;10.434;2022-08-14T11:26:16;100865.28;;;31.70;35.56
73558;BME280;61829;53.286;10.434;2022-08-14T11:28:47;100865.66;;;32.03;35.64
73558;BME280;61829;53.286;10.434;2022-08-14T11:31:15;100853.66;;;32.20;34.75
73558;BME280;61829;53.286;10.434;2022-08-14T11:33:42;100847.53;;;32.44;33.47
73558;BME280;61829;53.286;10.434;2022-08-14T11:36:11;100849.75;;;32.77;33.80
73558;BME280;61829;53.286;10.434;2022-08-14T11:38:40;100848.53;;;32.95;35.34
73558;BME280;61829;53.286;10.434;2022-08-14T11:41:06;100836.00;;;33.10;35.80
73558;BME280;61829;53.286;10.434;2022-08-14T11:43:43;100833.97;;;32.81;36.13
73558;BME280;61829;53.286;10.434;2022-08-14T11:46:10;100820.81;;;32.34;37.48
73558;BME280;61829;53.286;10.434;2022-08-14T11:48:47;100819.00;;;32.30;37.05
73558;BME280;61829;53.286;10.434;2022-08-14T11:51:18;100816.25;;;32.12;37.68
73558;BME280;61829;53.286;10.434;2022-08-14T11:53:55;100810.53;;;31.83;38.19
73558;BME280;61829;53.286;10.434;2022-08-14T11:56:22;100813.97;;;31.88;37.42
73558;BME280;61829;53.286;10.434;2022-08-14T11:58:51;100803.31;;;31.82;33.84
73558;BME280;61829;53.286;10.434;2022-08-14T12:01:24;100796.91;;;31.90;32.72
73558;BME280;61829;53.286;10.434;2022-08-14T12:03:51;100808.75;;;31.61;37.59
73558;BME280;61829;53.286;10.434;2022-08-14T12:06:18;100798.56;;;31.56;34.30
73558;BME280;61829;53.286;10.434;2022-08-14T12:08:45;100805.13;;;31.86;32.01
73558;BME280;61829;53.286;10.434;2022-08-14T12:11:13;100799.91;;;32.02;32.75
73558;BME280;61829;53.286;10.434;2022-08-14T12:13:40;100799.69;;;32.25;32.57
73558;BME280;61829;53.286;10.434;2022-08-14T12:16:09;100793.41;;;32.36;32.40
73558;BME280;61829;53.286;10.434;2022-08-14T12:18:40;100790.75;;;32.49;31.64
73558;BME280;61829;53.286;10.434;2022-08-14T12:23:35;100784.28;;;32.65;31.55
73558;BME280;61829;53.286;10.434;2022-08-14T12:26:10;100771.41;;;32.82;31.38
